Lykens, Pennsylvania
Current Conditions -  °F | °C
As of 7:46 PM on Wednesday 22 Oct 2014 (Local Time) from KMUI Reporting Station
Overcast Overcast  
Wind Chill: 54°   Ceiling: 2400
Heat Index: 54°   Visibility: 10mi
Dew Point: 48°   Wind: 12mph
Humidity: 82%   Direction: 330°NNW
Pressure: 29.96"   Gusts: 22mph
Location:  40.57°N, 76.7°W
Report Text: KMUI 222346Z AUTO 33010G19KT 270V360 10SM OVC024 12/09 A2996 RMK AO2 WSHFT 44
Loading
Personal Weather Stations






























Interactive Weather Map
Tropical Storm Tracking
New forecast layout! Learn more

10-Day Weather Forecast

Advertisements
Track Severe Weather on mobile